Wetterdaten: Woche 01.10.12 - 07.10.12 (KW40)
Datum Zeit Temp. Innen Temp. Aussen UV X Diff Temp. Feuchte Inne Feuchte Auss Sonnenschein Luftdruck Regen ab 0,1 Wind Sonnenschein T Regendauer Windben
01.10.2012 00:00 19,1 C 7,9 C 0,0 UV-I 0,0 C 50 % 91 % 0 % 1018,5 hPa 0,0 l/m 0,0 km/h (0 Bft) 0,00 h 0,00 h 0,0 km/h (0 Bft)
01.10.2012 01:00 18,9 C 8,0 C 0,0 UV-I 0,0 C 51 % 91 % 0 % 1018,4 hPa 0,0 l/m 0,0 km/h (0 Bft) 0,00 h 0,00 h 0,0 km/h (0 Bft)
01.10.2012 02:00 18,8 C 7,7 C 0,0 UV-I 0,0 C 51 % 91 % 0 % 1018,2 hPa 0,0 l/m 0,0 km/h (0 Bft) 0,00 h 0,00 h 0,0 km/h (0 Bft)
01.10.2012 03:00 18,6 C 7,0 C 0,0 UV-I 0,0 C 51 % 92 % 0 % 1018,0 hPa 0,0 l/m 0,0 km/h (0 Bft) 0,00 h 0,00 h 0,0 km/h (0 Bft)
01.10.2012 04:00 18,5 C 6,5 C 0,0 UV-I 0,0 C 51 % 92 % 0 % 1017,6 hPa 0,0 l/m 0,0 km/h (0 Bft) 0,00 h 0,00 h 0,0 km/h (0 Bft)
01.10.2012 05:00 18,4 C 6,1 C 0,0 UV-I 0,0 C 51 % 93 % 0 % 1017,3 hPa 0,0 l/m 0,7 km/h (0 Bft) 0,00 h 0,00 h 2,0 km/h (1 Bft)
01.10.2012 06:00 18,2 C 6,2 C 0,0 UV-I 0,0 C 51 % 94 % 0 % 1017,3 hPa 0,0 l/m 2,8 km/h (1 Bft) 0,00 h 0,07 h 4,2 km/h (1 Bft)
01.10.2012 07:00 18,2 C 6,1 C 0,0 UV-I 0,0 C 51 % 95 % 0 % 1017,3 hPa 0,0 l/m 2,3 km/h (1 Bft) 0,00 h 0,00 h 3,4 km/h (1 Bft)
01.10.2012 08:00 18,1 C 6,3 C 0,0 UV-I 1,1 C 51 % 95 % 28 % 1016,9 hPa 0,0 l/m 2,0 km/h (1 Bft) 0,30 h 0,00 h 3,0 km/h (1 Bft)
01.10.2012 09:00 18,2 C 8,2 C 0,2 UV-I 7,0 C 51 % 96 % 100 % 1017,1 hPa 0,0 l/m 3,3 km/h (1 Bft) 1,00 h 0,00 h 4,8 km/h (1 Bft)
01.10.2012 10:00 18,4 C 12,1 C 1,1 UV-I 8,3 C 52 % 92 % 100 % 1016,9 hPa 0,0 l/m 3,6 km/h (1 Bft) 1,00 h 0,00 h 5,8 km/h (2 Bft)
01.10.2012 11:00 18,7 C 15,0 C 2,5 UV-I 8,5 C 52 % 80 % 100 % 1016,6 hPa 0,0 l/m 3,5 km/h (1 Bft) 1,00 h 0,00 h 5,6 km/h (1 Bft)
01.10.2012 12:00 19,2 C 16,8 C 4,1 UV-I 7,6 C 52 % 71 % 100 % 1016,1 hPa 0,0 l/m 4,8 km/h (1 Bft) 1,00 h 0,00 h 7,0 km/h (2 Bft)
01.10.2012 13:00 20,2 C 18,2 C 4,1 UV-I 6,6 C 50 % 66 % 100 % 1015,8 hPa 0,0 l/m 4,8 km/h (1 Bft) 1,00 h 0,00 h 6,7 km/h (2 Bft)
01.10.2012 14:00 21,6 C 19,1 C 4,2 UV-I 6,2 C 49 % 61 % 100 % 1017,5 hPa 0,0 l/m 5,1 km/h (1 Bft) 1,00 h 0,00 h 7,6 km/h (2 Bft)
01.10.2012 15:00 22,9 C 19,8 C 3,5 UV-I 5,4 C 45 % 58 % 100 % 1015,4 hPa 0,0 l/m 5,2 km/h (1 Bft) 1,00 h 0,00 h 8,6 km/h (2 Bft)
01.10.2012 16:00 23,9 C 20,4 C 2,4 UV-I 5,1 C 42 % 54 % 100 % 1014,1 hPa 0,0 l/m 5,2 km/h (1 Bft) 1,00 h 0,00 h 8,3 km/h (2 Bft)
01.10.2012 17:00 23,6 C 20,0 C 0,5 UV-I 3,8 C 41 % 53 % 95 % 1014,0 hPa 0,0 l/m 3,3 km/h (1 Bft) 1,00 h 0,00 h 5,6 km/h (1 Bft)
01.10.2012 18:00 22,6 C 18,1 C 0,0 UV-I 0,8 C 42 % 58 % 23 % 1014,3 hPa 0,0 l/m 0,8 km/h (0 Bft) 0,30 h 0,00 h 0,9 km/h (0 Bft)
01.10.2012 19:00 21,7 C 16,0 C 0,0 UV-I 0,0 C 44 % 64 % 0 % 1014,4 hPa 0,0 l/m 0,4 km/h (0 Bft) 0,00 h 0,00 h 1,1 km/h (0 Bft)
01.10.2012 20:00 21,1 C 15,5 C 0,0 UV-I 0,0 C 45 % 66 % 0 % 1014,6 hPa 0,0 l/m 1,0 km/h (0 Bft) 0,00 h 0,00 h 2,8 km/h (1 Bft)
01.10.2012 21:00 20,8 C 15,2 C 0,0 UV-I 0,0 C 46 % 68 % 0 % 1014,9 hPa 0,0 l/m 2,7 km/h (1 Bft) 0,00 h 0,00 h 5,3 km/h (1 Bft)
01.10.2012 22:00 20,6 C 14,6 C 0,0 UV-I 0,0 C 47 % 70 % 0 % 1015,3 hPa 0,0 l/m 2,7 km/h (1 Bft) 0,00 h 0,00 h 4,9 km/h (1 Bft)
01.10.2012 23:00 20,4 C 14,1 C 0,0 UV-I 0,0 C 47 % 73 % 0 % 1015,3 hPa 0,0 l/m 2,0 km/h (1 Bft) 0,00 h 0,00 h 3,1 km/h (1 Bft)
02.10.2012 00:00 20,2 C 13,7 C 0,0 UV-I 0,0 C 48 % 75 % 0 % 1015,1 hPa 0,0 l/m 1,6 km/h (1 Bft) 0,00 h 0,00 h 3,5 km/h (1 Bft)
02.10.2012 01:00 20,1 C 13,4 C 0,0 UV-I 0,0 C 49 % 76 % 0 % 1014,8 hPa 0,0 l/m 1,5 km/h (1 Bft) 0,00 h 0,00 h 4,0 km/h (1 Bft)
02.10.2012 02:00 19,9 C 12,8 C 0,0 UV-I 0,0 C 50 % 79 % 0 % 1014,8 hPa 0,0 l/m 0,9 km/h (0 Bft) 0,00 h 0,00 h 1,3 km/h (1 Bft)
02.10.2012 03:00 19,8 C 12,9 C 0,0 UV-I 0,0 C 51 % 81 % 0 % 1014,7 hPa 0,0 l/m 0,8 km/h (0 Bft) 0,00 h 0,00 h 1,7 km/h (1 Bft)
02.10.2012 04:00 19,8 C 13,8 C 0,0 UV-I 0,0 C 51 % 80 % 0 % 1014,4 hPa 0,0 l/m 1,2 km/h (1 Bft) 0,00 h 0,00 h 1,8 km/h (1 Bft)
02.10.2012 05:00 19,8 C 13,9 C 0,0 UV-I 0,0 C 52 % 81 % 0 % 1014,5 hPa 0,0 l/m 0,8 km/h (0 Bft) 0,00 h 0,00 h 1,5 km/h (1 Bft)
02.10.2012 06:00 19,7 C 13,5 C 0,0 UV-I 0,0 C 53 % 82 % 0 % 1014,2 hPa 0,0 l/m 0,6 km/h (0 Bft) 0,00 h 0,00 h 0,9 km/h (0 Bft)
02.10.2012 07:00 19,7 C 13,5 C 0,0 UV-I 0,0 C 54 % 84 % 0 % 1014,4 hPa 0,0 l/m 0,6 km/h (0 Bft) 0,00 h 0,00 h 1,5 km/h (1 Bft)
02.10.2012 08:00 19,8 C 13,9 C 0,0 UV-I 0,0 C 55 % 85 % 0 % 1014,5 hPa 0,0 l/m 1,7 km/h (1 Bft) 0,00 h 0,00 h 3,8 km/h (1 Bft)
02.10.2012 09:00 19,8 C 14,0 C 0,0 UV-I 0,1 C 55 % 86 % 2 % 1014,9 hPa 0,0 l/m 0,9 km/h (0 Bft) 0,00 h 0,00 h 1,3 km/h (1 Bft)
02.10.2012 10:00 19,8 C 14,0 C 0,0 UV-I 0,1 C 57 % 87 % 4 % 1015,2 hPa 0,0 l/m 2,0 km/h (1 Bft) 0,00 h 0,10 h 4,8 km/h (1 Bft)
02.10.2012 11:00 20,0 C 14,1 C 0,2 UV-I 0,2 C 59 % 91 % 6 % 1015,3 hPa 0,1 l/m 1,2 km/h (1 Bft) 0,00 h 0,47 h 2,3 km/h (1 Bft)
02.10.2012 12:00 20,1 C 14,5 C 0,2 UV-I 0,5 C 60 % 92 % 14 % 1015,2 hPa 0,7 l/m 2,6 km/h (1 Bft) 0,00 h 0,37 h 5,6 km/h (1 Bft)
02.10.2012 13:00 20,1 C 14,3 C 0,2 UV-I 0,3 C 62 % 93 % 7 % 1015,1 hPa 0,1 l/m 1,0 km/h (0 Bft) 0,00 h 0,10 h 1,5 km/h (1 Bft)
02.10.2012 14:00 20,2 C 14,6 C 0,0 UV-I 0,2 C 62 % 94 % 6 % 1014,5 hPa 0,0 l/m 1,2 km/h (1 Bft) 0,00 h 0,03 h 1,7 km/h (1 Bft)
02.10.2012 15:00 20,2 C 14,9 C 0,0 UV-I 0,2 C 63 % 94 % 6 % 1014,4 hPa 0,0 l/m 1,3 km/h (1 Bft) 0,00 h 0,03 h 2,9 km/h (1 Bft)
02.10.2012 16:00 20,2 C 14,9 C 0,0 UV-I 0,0 C 64 % 94 % 0 % 1014,2 hPa 0,6 l/m 1,3 km/h (1 Bft) 0,00 h 0,30 h 1,9 km/h (1 Bft)
02.10.2012 17:00 20,2 C 14,8 C 0,0 UV-I 0,0 C 64 % 95 % 0 % 1014,0 hPa 0,1 l/m 1,2 km/h (1 Bft) 0,00 h 0,00 h 2,6 km/h (1 Bft)
02.10.2012 18:00 20,1 C 14,7 C 0,0 UV-I 0,0 C 63 % 93 % 0 % 1013,8 hPa 0,0 l/m 3,5 km/h (1 Bft) 0,00 h 0,00 h 5,5 km/h (1 Bft)
02.10.2012 19:00 19,9 C 14,2 C 0,0 UV-I 0,0 C 63 % 93 % 0 % 1014,0 hPa 0,0 l/m 1,1 km/h (1 Bft) 0,00 h 0,00 h 2,9 km/h (1 Bft)
02.10.2012 20:00 19,7 C 13,8 C 0,0 UV-I 0,0 C 63 % 93 % 0 % 1014,0 hPa 0,0 l/m 1,1 km/h (0 Bft) 0,00 h 0,00 h 1,9 km/h (1 Bft)
02.10.2012 21:00 19,6 C 13,5 C 0,0 UV-I 0,0 C 62 % 93 % 0 % 1014,0 hPa 0,0 l/m 1,1 km/h (1 Bft) 0,00 h 0,00 h 1,7 km/h (1 Bft)
02.10.2012 22:00 19,5 C 13,1 C 0,0 UV-I 0,0 C 62 % 93 % 0 % 1014,1 hPa 0,0 l/m 1,2 km/h (1 Bft) 0,00 h 0,00 h 2,4 km/h (1 Bft)
02.10.2012 23:00 19,4 C 12,9 C 0,0 UV-I 0,0 C 62 % 93 % 0 % 1013,6 hPa 0,0 l/m 1,8 km/h (1 Bft) 0,00 h 0,00 h 3,0 km/h (1 Bft)
03.10.2012 00:00 19,3 C 12,9 C 0,0 UV-I 0,0 C 60 % 93 % 0 % 1013,1 hPa 0,0 l/m 4,0 km/h (1 Bft) 0,00 h 0,00 h 7,2 km/h (2 Bft)
03.10.2012 01:00 19,2 C 12,7 C 0,0 UV-I 0,0 C 60 % 92 % 0 % 1012,6 hPa 0,0 l/m 3,3 km/h (1 Bft) 0,00 h 0,00 h 5,5 km/h (1 Bft)
03.10.2012 02:00 19,2 C 13,0 C 0,0 UV-I 0,0 C 60 % 91 % 0 % 1012,0 hPa 0,0 l/m 2,7 km/h (1 Bft) 0,00 h 0,00 h 4,0 km/h (1 Bft)
03.10.2012 03:00 19,2 C 13,2 C 0,0 UV-I 0,0 C 60 % 90 % 0 % 1011,5 hPa 0,0 l/m 3,7 km/h (1 Bft) 0,00 h 0,00 h 6,2 km/h (2 Bft)
03.10.2012 04:00 19,2 C 13,8 C 0,0 UV-I 0,0 C 60 % 89 % 0 % 1011,1 hPa 0,0 l/m 3,7 km/h (1 Bft) 0,00 h 0,03 h 6,4 km/h (2 Bft)
03.10.2012 05:00 19,2 C 14,0 C 0,0 UV-I 0,0 C 60 % 88 % 0 % 1010,7 hPa 0,0 l/m 3,6 km/h (1 Bft) 0,00 h 0,10 h 5,8 km/h (2 Bft)
03.10.2012 06:00 19,2 C 14,2 C 0,0 UV-I 0,0 C 60 % 87 % 0 % 1010,3 hPa 0,0 l/m 4,2 km/h (1 Bft) 0,00 h 0,03 h 6,4 km/h (2 Bft)
03.10.2012 07:00 19,1 C 14,4 C 0,0 UV-I 0,0 C 60 % 86 % 0 % 1010,1 hPa 0,0 l/m 4,7 km/h (1 Bft) 0,00 h 0,03 h 6,2 km/h (2 Bft)
03.10.2012 08:00 19,0 C 14,4 C 0,0 UV-I 0,0 C 60 % 85 % 0 % 1010,0 hPa 0,0 l/m 6,8 km/h (2 Bft) 0,00 h 0,00 h 9,6 km/h (2 Bft)
03.10.2012 09:00 18,8 C 14,7 C 0,1 UV-I 1,0 C 60 % 84 % 29 % 1009,9 hPa 0,0 l/m 6,9 km/h (2 Bft) 0,03 h 0,00 h 11,1 km/h (2 Bft)
03.10.2012 10:00 18,9 C 15,9 C 0,8 UV-I 3,9 C 60 % 81 % 91 % 1009,7 hPa 0,0 l/m 8,4 km/h (2 Bft) 0,77 h 0,00 h 13,5 km/h (3 Bft)
03.10.2012 11:00 19,2 C 16,7 C 0,7 UV-I 2,2 C 60 % 77 % 62 % 1009,6 hPa 0,0 l/m 8,9 km/h (2 Bft) 0,17 h 0,00 h 12,4 km/h (3 Bft)
03.10.2012 12:00 19,5 C 16,5 C 0,3 UV-I 0,7 C 59 % 77 % 20 % 1009,4 hPa 0,0 l/m 9,3 km/h (2 Bft) 0,00 h 0,13 h 12,6 km/h (3 Bft)
03.10.2012 13:00 19,4 C 14,9 C 0,2 UV-I 0,0 C 61 % 87 % 0 % 1009,9 hPa 0,5 l/m 7,1 km/h (2 Bft) 0,00 h 0,40 h 10,5 km/h (2 Bft)
03.10.2012 14:00 19,6 C 14,9 C 0,5 UV-I 0,6 C 64 % 92 % 16 % 1010,1 hPa 0,0 l/m 6,1 km/h (2 Bft) 0,00 h 0,00 h 9,5 km/h (2 Bft)
03.10.2012 15:00 19,7 C 15,8 C 0,6 UV-I 1,4 C 63 % 88 % 41 % 1009,5 hPa 0,0 l/m 6,4 km/h (2 Bft) 0,00 h 0,03 h 9,6 km/h (2 Bft)
03.10.2012 16:00 20,1 C 16,6 C 0,5 UV-I 1,1 C 61 % 81 % 32 % 1009,0 hPa 0,0 l/m 8,0 km/h (2 Bft) 0,00 h 0,03 h 10,9 km/h (2 Bft)
03.10.2012 17:00 20,0 C 16,3 C 0,0 UV-I 0,1 C 59 % 80 % 1 % 1008,7 hPa 0,0 l/m 5,9 km/h (2 Bft) 0,00 h 0,03 h 7,8 km/h (2 Bft)
03.10.2012 18:00 19,7 C 15,8 C 0,0 UV-I 0,0 C 60 % 82 % 0 % 1008,8 hPa 0,1 l/m 6,0 km/h (2 Bft) 0,00 h 0,43 h 7,1 km/h (2 Bft)
03.10.2012 19:00 19,4 C 14,3 C 0,0 UV-I 0,0 C 63 % 88 % 0 % 1009,1 hPa 1,5 l/m 3,8 km/h (1 Bft) 0,00 h 0,57 h 5,2 km/h (1 Bft)
03.10.2012 20:00 19,3 C 13,3 C 0,0 UV-I 0,0 C 63 % 92 % 0 % 1009,0 hPa 0,2 l/m 2,1 km/h (1 Bft) 0,00 h 0,03 h 2,5 km/h (1 Bft)
03.10.2012 21:00 19,2 C 12,6 C 0,0 UV-I 0,0 C 63 % 93 % 0 % 1008,8 hPa 0,2 l/m 1,0 km/h (0 Bft) 0,00 h 0,37 h 1,2 km/h (1 Bft)
03.10.2012 22:00 19,1 C 11,7 C 0,0 UV-I 0,0 C 62 % 93 % 0 % 1008,2 hPa 1,5 l/m 0,5 km/h (0 Bft) 0,00 h 0,57 h 0,9 km/h (0 Bft)
03.10.2012 23:00 19,0 C 11,9 C 0,0 UV-I 0,0 C 63 % 95 % 0 % 1007,6 hPa 0,2 l/m 0,9 km/h (0 Bft) 0,00 h 0,33 h 1,3 km/h (1 Bft)
04.10.2012 00:00 19,1 C 12,4 C 0,0 UV-I 0,0 C 64 % 96 % 0 % 1007,1 hPa 0,0 l/m 1,9 km/h (1 Bft) 0,00 h 0,00 h 3,8 km/h (1 Bft)
04.10.2012 01:00 19,1 C 12,7 C 0,0 UV-I 0,0 C 64 % 97 % 0 % 1006,8 hPa 5,1 l/m 2,9 km/h (1 Bft) 0,00 h 0,53 h 7,8 km/h (2 Bft)
04.10.2012 02:00 18,9 C 11,3 C 0,0 UV-I 0,0 C 63 % 96 % 0 % 1007,2 hPa 1,0 l/m 1,1 km/h (0 Bft) 0,00 h 1,00 h 1,3 km/h (1 Bft)
04.10.2012 03:00 18,7 C 10,9 C 0,0 UV-I 0,0 C 63 % 96 % 0 % 1006,8 hPa 4,2 l/m 0,1 km/h (0 Bft) 0,00 h 1,00 h 0,7 km/h (0 Bft)
04.10.2012 04:00 18,6 C 10,9 C 0,0 UV-I 0,0 C 63 % 97 % 0 % 1005,8 hPa 3,0 l/m 0,9 km/h (0 Bft) 0,00 h 1,00 h 1,1 km/h (0 Bft)
04.10.2012 05:00 18,5 C 11,0 C 0,0 UV-I 0,0 C 64 % 97 % 0 % 1005,1 hPa 2,7 l/m 0,0 km/h (0 Bft) 0,00 h 1,00 h 0,0 km/h (0 Bft)
04.10.2012 06:00 18,5 C 11,3 C 0,0 UV-I 0,0 C 64 % 98 % 0 % 1004,2 hPa 2,7 l/m 1,1 km/h (1 Bft) 0,00 h 1,00 h 2,0 km/h (1 Bft)
04.10.2012 07:00 18,6 C 11,1 C 0,0 UV-I 0,0 C 64 % 98 % 0 % 1003,5 hPa 6,2 l/m 3,5 km/h (1 Bft) 0,00 h 1,00 h 5,0 km/h (1 Bft)
04.10.2012 08:00 18,6 C 10,8 C 0,0 UV-I 0,0 C 64 % 98 % 0 % 1003,1 hPa 2,8 l/m 0,3 km/h (0 Bft) 0,00 h 1,00 h 0,5 km/h (0 Bft)
04.10.2012 09:00 18,6 C 10,5 C 0,0 UV-I 0,0 C 64 % 98 % 0 % 1003,2 hPa 5,3 l/m 3,2 km/h (1 Bft) 0,00 h 0,82 h 5,0 km/h (1 Bft)
04.10.2012 10:00 18,6 C 10,4 C 0,0 UV-I 0,0 C 63 % 98 % 0 % 1003,7 hPa 2,7 l/m 5,9 km/h (2 Bft) 0,00 h 0,40 h 7,5 km/h (2 Bft)
04.10.2012 11:00 18,6 C 10,2 C 0,0 UV-I 0,0 C 62 % 98 % 0 % 1004,6 hPa 1,4 l/m 1,9 km/h (1 Bft) 0,00 h 0,80 h 3,5 km/h (1 Bft)
04.10.2012 12:00 18,6 C 9,9 C 0,2 UV-I 0,3 C 60 % 98 % 7 % 1005,8 hPa 0,2 l/m 2,8 km/h (1 Bft) 0,00 h 0,50 h 5,2 km/h (1 Bft)
04.10.2012 13:00 19,0 C 10,9 C 0,8 UV-I 1,5 C 60 % 98 % 43 % 1007,1 hPa 0,0 l/m 6,2 km/h (2 Bft) 0,07 h 0,03 h 9,8 km/h (2 Bft)
04.10.2012 14:00 19,7 C 12,4 C 2,6 UV-I 4,0 C 58 % 95 % 87 % 1008,8 hPa 0,0 l/m 6,0 km/h (2 Bft) 0,67 h 0,00 h 10,0 km/h (2 Bft)
04.10.2012 15:00 21,1 C 13,9 C 2,1 UV-I 4,1 C 53 % 85 % 91 % 1009,5 hPa 0,0 l/m 7,5 km/h (2 Bft) 0,80 h 0,00 h 9,1 km/h (2 Bft)
04.10.2012 16:00 21,6 C 14,7 C 1,4 UV-I 3,8 C 50 % 78 % 94 % 1009,3 hPa 0,0 l/m 6,9 km/h (2 Bft) 0,83 h 0,00 h 11,3 km/h (2 Bft)
04.10.2012 17:00 21,5 C 14,4 C 0,3 UV-I 2,2 C 48 % 75 % 59 % 1010,6 hPa 0,0 l/m 6,5 km/h (2 Bft) 0,53 h 0,17 h 10,6 km/h (2 Bft)
04.10.2012 18:00 20,8 C 13,4 C 0,0 UV-I 0,2 C 50 % 79 % 6 % 1011,7 hPa 0,0 l/m 1,9 km/h (1 Bft) 0,13 h 0,00 h 2,4 km/h (1 Bft)
04.10.2012 19:00 20,0 C 12,0 C 0,0 UV-I 0,0 C 50 % 80 % 0 % 1012,8 hPa 0,0 l/m 0,2 km/h (0 Bft) 0,00 h 0,07 h 0,2 km/h (0 Bft)
04.10.2012 20:00 19,2 C 10,5 C 0,0 UV-I 0,0 C 51 % 83 % 0 % 1013,5 hPa 0,0 l/m 0,1 km/h (0 Bft) 0,00 h 0,07 h 0,1 km/h (0 Bft)
04.10.2012 21:00 18,6 C 9,6 C 0,0 UV-I 0,0 C 52 % 86 % 0 % 1013,6 hPa 0,0 l/m 0,1 km/h (0 Bft) 0,00 h 0,00 h 0,0 km/h (0 Bft)
04.10.2012 22:00 18,3 C 9,2 C 0,0 UV-I 0,0 C 54 % 89 % 0 % 1013,8 hPa 0,0 l/m 0,3 km/h (0 Bft) 0,00 h 0,00 h 0,7 km/h (0 Bft)
04.10.2012 23:00 18,2 C 9,8 C 0,0 UV-I 0,0 C 53 % 90 % 0 % 1014,4 hPa 0,0 l/m 1,9 km/h (1 Bft) 0,00 h 0,03 h 3,8 km/h (1 Bft)
05.10.2012 00:00 18,1 C 10,0 C 0,0 UV-I 0,0 C 53 % 89 % 0 % 1014,2 hPa 0,0 l/m 1,1 km/h (1 Bft) 0,00 h 0,00 h 2,3 km/h (1 Bft)
05.10.2012 01:00 18,0 C 9,6 C 0,0 UV-I 0,0 C 54 % 90 % 0 % 1013,5 hPa 0,0 l/m 2,2 km/h (1 Bft) 0,00 h 0,03 h 3,4 km/h (1 Bft)
05.10.2012 02:00 17,9 C 9,7 C 0,0 UV-I 0,0 C 54 % 90 % 0 % 1013,1 hPa 0,0 l/m 4,2 km/h (1 Bft) 0,00 h 0,00 h 6,0 km/h (2 Bft)
05.10.2012 03:00 17,9 C 9,9 C 0,0 UV-I 0,0 C 54 % 90 % 0 % 1012,2 hPa 0,0 l/m 4,5 km/h (1 Bft) 0,00 h 0,00 h 7,0 km/h (2 Bft)
05.10.2012 04:00 17,9 C 10,2 C 0,0 UV-I 0,0 C 55 % 90 % 0 % 1011,0 hPa 0,0 l/m 5,7 km/h (1 Bft) 0,00 h 0,13 h 7,9 km/h (2 Bft)
05.10.2012 05:00 18,0 C 10,8 C 0,0 UV-I 0,0 C 57 % 91 % 0 % 1010,1 hPa 0,9 l/m 5,1 km/h (1 Bft) 0,00 h 0,83 h 6,9 km/h (2 Bft)
05.10.2012 06:00 18,0 C 10,7 C 0,0 UV-I 0,0 C 59 % 94 % 0 % 1009,0 hPa 1,0 l/m 5,4 km/h (1 Bft) 0,00 h 0,70 h 7,1 km/h (2 Bft)
05.10.2012 07:00 18,0 C 11,1 C 0,0 UV-I 0,0 C 60 % 95 % 0 % 1007,7 hPa 0,4 l/m 4,4 km/h (1 Bft) 0,00 h 0,63 h 8,0 km/h (2 Bft)
05.10.2012 08:00 18,1 C 12,4 C 0,0 UV-I 0,0 C 63 % 97 % 0 % 1006,7 hPa 0,1 l/m 7,0 km/h (2 Bft) 0,00 h 0,13 h 10,5 km/h (2 Bft)
05.10.2012 09:00 18,1 C 13,8 C 0,0 UV-I 0,0 C 65 % 96 % 0 % 1005,8 hPa 0,0 l/m 9,3 km/h (2 Bft) 0,00 h 0,07 h 13,8 km/h (3 Bft)
05.10.2012 10:00 18,2 C 15,6 C 0,0 UV-I 0,2 C 67 % 93 % 7 % 1005,5 hPa 0,1 l/m 12,2 km/h (2 Bft) 0,00 h 0,00 h 18,3 km/h (3 Bft)
05.10.2012 11:00 18,6 C 16,7 C 0,1 UV-I 0,5 C 67 % 88 % 14 % 1005,5 hPa 0,0 l/m 15,5 km/h (3 Bft) 0,00 h 0,00 h 23,3 km/h (4 Bft)
05.10.2012 12:00 19,0 C 17,3 C 0,3 UV-I 0,7 C 68 % 87 % 20 % 1005,7 hPa 0,0 l/m 16,1 km/h (3 Bft) 0,00 h 0,00 h 23,6 km/h (4 Bft)
05.10.2012 13:00 19,3 C 18,1 C 0,8 UV-I 1,3 C 68 % 85 % 37 % 1005,9 hPa 0,0 l/m 15,0 km/h (3 Bft) 0,03 h 0,00 h 21,1 km/h (4 Bft)
05.10.2012 14:00 19,8 C 17,2 C 0,0 UV-I 0,2 C 67 % 86 % 5 % 1006,8 hPa 0,6 l/m 10,5 km/h (2 Bft) 0,00 h 0,30 h 14,4 km/h (3 Bft)
05.10.2012 15:00 19,9 C 14,2 C 0,1 UV-I 0,0 C 65 % 93 % 0 % 1008,1 hPa 1,1 l/m 5,6 km/h (1 Bft) 0,00 h 0,60 h 9,3 km/h (2 Bft)
05.10.2012 16:00 19,7 C 13,3 C 0,0 UV-I 0,0 C 65 % 95 % 0 % 1008,9 hPa 2,4 l/m 6,0 km/h (2 Bft) 0,00 h 0,03 h 7,8 km/h (2 Bft)
05.10.2012 17:00 19,6 C 13,2 C 0,0 UV-I 0,0 C 65 % 96 % 0 % 1009,3 hPa 0,4 l/m 3,8 km/h (1 Bft) 0,00 h 0,00 h 6,6 km/h (2 Bft)
05.10.2012 18:00 19,6 C 13,2 C 0,0 UV-I 0,0 C 65 % 96 % 0 % 1009,9 hPa 0,0 l/m 1,7 km/h (1 Bft) 0,00 h 0,00 h 3,0 km/h (1 Bft)
05.10.2012 19:00 19,3 C 12,9 C 0,0 UV-I 0,0 C 65 % 96 % 0 % 1010,2 hPa 0,0 l/m 0,4 km/h (0 Bft) 0,00 h 0,00 h 0,8 km/h (0 Bft)
05.10.2012 20:00 19,1 C 13,0 C 0,0 UV-I 0,0 C 66 % 97 % 0 % 1010,4 hPa 0,0 l/m 0,2 km/h (0 Bft) 0,00 h 0,00 h 0,8 km/h (0 Bft)
05.10.2012 21:00 19,1 C 13,2 C 0,0 UV-I 0,0 C 66 % 97 % 0 % 1010,9 hPa 0,1 l/m 0,1 km/h (0 Bft) 0,00 h 0,37 h 0,0 km/h (0 Bft)
05.10.2012 22:00 19,1 C 13,1 C 0,0 UV-I 0,0 C 66 % 97 % 0 % 1011,4 hPa 1,1 l/m 0,3 km/h (0 Bft) 0,00 h 0,63 h 0,8 km/h (0 Bft)
05.10.2012 23:00 19,1 C 12,8 C 0,0 UV-I 0,0 C 66 % 97 % 0 % 1011,2 hPa 0,0 l/m 0,0 km/h (0 Bft) 0,00 h 0,00 h 0,0 km/h (0 Bft)
06.10.2012 00:00 19,1 C 12,4 C 0,0 UV-I 0,0 C 66 % 97 % 0 % 1010,8 hPa 0,0 l/m 0,5 km/h (0 Bft) 0,00 h 0,03 h 1,1 km/h (0 Bft)
06.10.2012 01:00 19,0 C 12,2 C 0,0 UV-I 0,0 C 66 % 97 % 0 % 1010,4 hPa 1,5 l/m 0,3 km/h (0 Bft) 0,00 h 0,80 h 0,8 km/h (0 Bft)
06.10.2012 02:00 19,0 C 12,8 C 0,0 UV-I 0,0 C 66 % 98 % 0 % 1009,7 hPa 0,6 l/m 1,3 km/h (1 Bft) 0,00 h 0,13 h 2,5 km/h (1 Bft)
06.10.2012 03:00 19,1 C 13,0 C 0,0 UV-I 0,0 C 66 % 98 % 0 % 1008,5 hPa 0,0 l/m 2,2 km/h (1 Bft) 0,00 h 0,00 h 3,3 km/h (1 Bft)
06.10.2012 04:00 19,1 C 13,7 C 0,0 UV-I 0,0 C 67 % 99 % 0 % 1007,7 hPa 0,0 l/m 1,9 km/h (1 Bft) 0,00 h 0,00 h 4,0 km/h (1 Bft)
06.10.2012 05:00 19,3 C 14,8 C 0,0 UV-I 0,0 C 68 % 99 % 0 % 1007,4 hPa 0,0 l/m 4,5 km/h (1 Bft) 0,00 h 0,00 h 6,7 km/h (2 Bft)
06.10.2012 06:00 19,4 C 15,2 C 0,0 UV-I 0,0 C 68 % 98 % 0 % 1007,1 hPa 0,0 l/m 3,7 km/h (1 Bft) 0,00 h 0,00 h 6,4 km/h (2 Bft)
06.10.2012 07:00 19,5 C 15,4 C 0,0 UV-I 0,0 C 67 % 97 % 0 % 1006,4 hPa 0,0 l/m 3,8 km/h (1 Bft) 0,00 h 0,00 h 6,4 km/h (2 Bft)
06.10.2012 08:00 19,6 C 15,6 C 0,0 UV-I 0,0 C 67 % 96 % 0 % 1006,4 hPa 0,0 l/m 3,1 km/h (1 Bft) 0,00 h 0,00 h 5,3 km/h (1 Bft)
06.10.2012 09:00 19,8 C 16,2 C 0,0 UV-I 0,1 C 67 % 94 % 2 % 1006,2 hPa 0,1 l/m 4,8 km/h (1 Bft) 0,00 h 0,00 h 7,6 km/h (2 Bft)
06.10.2012 10:00 20,0 C 16,6 C 0,0 UV-I 0,0 C 66 % 91 % 0 % 1006,2 hPa 0,0 l/m 6,6 km/h (2 Bft) 0,00 h 0,30 h 9,9 km/h (2 Bft)
06.10.2012 11:00 20,1 C 15,6 C 0,0 UV-I 0,0 C 66 % 91 % 0 % 1006,8 hPa 3,2 l/m 7,8 km/h (2 Bft) 0,00 h 0,83 h 14,5 km/h (3 Bft)
06.10.2012 12:00 19,8 C 11,5 C 0,0 UV-I 0,0 C 65 % 93 % 0 % 1009,0 hPa 2,2 l/m 9,2 km/h (2 Bft) 0,00 h 0,00 h 11,6 km/h (2 Bft)
06.10.2012 13:00 19,5 C 10,8 C 0,2 UV-I 0,0 C 65 % 96 % 0 % 1010,2 hPa 0,2 l/m 7,4 km/h (2 Bft) 0,00 h 0,03 h 10,2 km/h (2 Bft)
06.10.2012 14:00 19,5 C 11,3 C 0,4 UV-I 0,7 C 65 % 97 % 21 % 1011,4 hPa 0,0 l/m 2,7 km/h (1 Bft) 0,00 h 0,00 h 3,3 km/h (1 Bft)
06.10.2012 15:00 19,9 C 12,0 C 0,6 UV-I 1,5 C 64 % 96 % 43 % 1012,0 hPa 0,0 l/m 2,4 km/h (1 Bft) 0,10 h 0,00 h 4,0 km/h (1 Bft)
06.10.2012 16:00 20,8 C 12,8 C 0,4 UV-I 2,3 C 61 % 93 % 65 % 1012,5 hPa 0,0 l/m 1,5 km/h (1 Bft) 0,20 h 0,00 h 2,1 km/h (1 Bft)
06.10.2012 17:00 20,5 C 12,5 C 0,0 UV-I 0,7 C 59 % 92 % 21 % 1013,1 hPa 0,0 l/m 0,2 km/h (0 Bft) 0,23 h 0,00 h 0,2 km/h (0 Bft)
06.10.2012 18:00 20,1 C 12,1 C 0,0 UV-I 0,1 C 60 % 92 % 3 % 1013,2 hPa 0,0 l/m 0,0 km/h (0 Bft) 0,00 h 0,00 h 0,4 km/h (0 Bft)
06.10.2012 19:00 19,6 C 11,0 C 0,0 UV-I 0,0 C 61 % 93 % 0 % 1013,8 hPa 0,0 l/m 0,0 km/h (0 Bft) 0,00 h 0,00 h 0,0 km/h (0 Bft)
06.10.2012 20:00 19,2 C 10,2 C 0,0 UV-I 0,0 C 62 % 94 % 0 % 1014,1 hPa 0,0 l/m 0,0 km/h (0 Bft) 0,00 h 0,00 h 0,0 km/h (0 Bft)
06.10.2012 21:00 18,9 C 9,3 C 0,0 UV-I 0,0 C 62 % 94 % 0 % 1014,2 hPa 0,0 l/m 0,0 km/h (0 Bft) 0,00 h 0,07 h 0,0 km/h (0 Bft)
06.10.2012 22:00 18,7 C 8,0 C 0,0 UV-I 0,0 C 61 % 95 % 0 % 1014,4 hPa 0,0 l/m 0,0 km/h (0 Bft) 0,00 h 0,00 h 0,0 km/h (0 Bft)
06.10.2012 23:00 18,6 C 7,4 C 0,0 UV-I 0,0 C 61 % 96 % 0 % 1014,6 hPa 0,0 l/m 0,0 km/h (0 Bft) 0,00 h 0,07 h 0,0 km/h (0 Bft)
07.10.2012 00:00 18,5 C 7,1 C 0,0 UV-I 0,0 C 60 % 96 % 0 % 1014,4 hPa 0,1 l/m 0,0 km/h (0 Bft) 0,00 h 0,00 h 0,0 km/h (0 Bft)
07.10.2012 01:00 18,4 C 7,6 C 0,0 UV-I 0,0 C 60 % 97 % 0 % 1014,3 hPa 0,0 l/m 0,0 km/h (0 Bft) 0,00 h 0,03 h 0,0 km/h (0 Bft)
07.10.2012 02:00 18,4 C 8,0 C 0,0 UV-I 0,0 C 60 % 98 % 0 % 1014,5 hPa 0,0 l/m 0,0 km/h (0 Bft) 0,00 h 0,00 h 0,0 km/h (0 Bft)
07.10.2012 03:00 18,5 C 8,3 C 0,0 UV-I 0,0 C 60 % 98 % 0 % 1014,6 hPa 0,0 l/m 0,2 km/h (0 Bft) 0,00 h 0,00 h 0,4 km/h (0 Bft)
07.10.2012 04:00 18,4 C 8,1 C 0,0 UV-I 0,0 C 60 % 98 % 0 % 1014,7 hPa 0,0 l/m 0,2 km/h (0 Bft) 0,00 h 0,00 h 0,3 km/h (0 Bft)
07.10.2012 05:00 18,4 C 7,8 C 0,0 UV-I 0,0 C 60 % 98 % 0 % 1015,0 hPa 0,0 l/m 0,0 km/h (0 Bft) 0,00 h 0,03 h 0,0 km/h (0 Bft)
07.10.2012 06:00 18,3 C 6,8 C 0,0 UV-I 0,0 C 60 % 98 % 0 % 1015,4 hPa 0,0 l/m 0,0 km/h (0 Bft) 0,00 h 0,00 h 0,0 km/h (0 Bft)
07.10.2012 07:00 18,2 C 5,6 C 0,0 UV-I 0,0 C 58 % 98 % 0 % 1016,0 hPa 0,0 l/m 0,0 km/h (0 Bft) 0,00 h 0,00 h 0,0 km/h (0 Bft)
07.10.2012 08:00 18,0 C 5,4 C 0,0 UV-I 0,0 C 58 % 98 % 0 % 1016,8 hPa 0,0 l/m 0,0 km/h (0 Bft) 0,00 h 0,00 h 0,0 km/h (0 Bft)
07.10.2012 09:00 18,0 C 6,6 C 0,1 UV-I 4,4 C 58 % 99 % 85 % 1017,6 hPa 0,0 l/m 0,3 km/h (0 Bft) 0,83 h 0,00 h 0,6 km/h (0 Bft)
07.10.2012 10:00 18,2 C 8,5 C 0,6 UV-I 4,8 C 58 % 99 % 95 % 1018,3 hPa 0,0 l/m 1,3 km/h (1 Bft) 0,90 h 0,00 h 2,8 km/h (1 Bft)
07.10.2012 11:00 18,4 C 10,5 C 1,5 UV-I 7,0 C 58 % 99 % 100 % 1019,1 hPa 0,0 l/m 5,1 km/h (1 Bft) 1,00 h 0,00 h 8,3 km/h (2 Bft)
07.10.2012 12:00 18,7 C 12,8 C 3,4 UV-I 7,7 C 58 % 91 % 100 % 1019,6 hPa 0,0 l/m 7,7 km/h (2 Bft) 1,00 h 0,00 h 12,6 km/h (3 Bft)
07.10.2012 13:00 19,9 C 13,8 C 3,5 UV-I 5,8 C 56 % 78 % 100 % 1020,2 hPa 0,0 l/m 8,1 km/h (2 Bft) 1,00 h 0,00 h 10,5 km/h (2 Bft)
07.10.2012 14:00 21,3 C 14,6 C 3,3 UV-I 5,9 C 52 % 69 % 97 % 1022,6 hPa 0,0 l/m 6,8 km/h (2 Bft) 0,93 h 0,00 h 9,7 km/h (2 Bft)
07.10.2012 15:00 22,3 C 15,0 C 2,2 UV-I 5,2 C 49 % 66 % 98 % 1021,4 hPa 0,0 l/m 6,7 km/h (2 Bft) 0,93 h 0,00 h 9,0 km/h (2 Bft)
07.10.2012 16:00 23,1 C 15,4 C 1,1 UV-I 4,2 C 46 % 63 % 74 % 1021,1 hPa 0,0 l/m 3,9 km/h (1 Bft) 0,60 h 0,00 h 5,1 km/h (1 Bft)
07.10.2012 17:00 22,3 C 14,1 C 0,1 UV-I 1,1 C 47 % 70 % 33 % 1021,3 hPa 0,0 l/m 1,7 km/h (1 Bft) 0,20 h 0,00 h 2,5 km/h (1 Bft)
07.10.2012 18:00 21,3 C 12,8 C 0,0 UV-I 0,1 C 49 % 74 % 3 % 1021,6 hPa 0,0 l/m 0,1 km/h (0 Bft) 0,03 h 0,00 h 0,0 km/h (0 Bft)
07.10.2012 19:00 20,3 C 10,3 C 0,0 UV-I 0,0 C 51 % 81 % 0 % 1022,0 hPa 0,0 l/m 0,0 km/h (0 Bft) 0,00 h 0,00 h 0,0 km/h (0 Bft)
07.10.2012 20:00 19,5 C 8,5 C 0,0 UV-I 0,0 C 53 % 86 % 0 % 1022,3 hPa 0,0 l/m 0,0 km/h (0 Bft) 0,00 h 0,00 h 0,0 km/h (0 Bft)
07.10.2012 21:00 19,0 C 7,5 C 0,0 UV-I 0,0 C 54 % 90 % 0 % 1022,7 hPa 0,0 l/m 0,0 km/h (0 Bft) 0,00 h 0,07 h 0,0 km/h (0 Bft)
07.10.2012 22:00 18,8 C 7,1 C 0,0 UV-I 0,0 C 54 % 92 % 0 % 1023,1 hPa 0,0 l/m 0,0 km/h (0 Bft) 0,00 h 0,00 h 0,0 km/h (0 Bft)
07.10.2012 23:00 18,6 C 6,8 C 0,0 UV-I 0,0 C 54 % 93 % 0 % 1023,2 hPa 0,0 l/m 0,0 km/h (0 Bft) 0,00 h 0,00 h 0,0 km/h (0 Bft)
Min-Datum _ 05.10.12 07.10.12 01.10.12 01.10.12 01.10.12 01.10.12 01.10.12 04.10.12 - 01.10.12 - - 01.10.12
_ Min-Zeit 03:44 08:18 00:00 00:00 17:04 16:44 00:00 08:26 - 00:00 - - 00:00
Minimum _ 17,8 C 5,0 C 0,0 UV-I 0,0 C 40 % 52 % 0 % 1002,9 hPa - 0,0 km/h (0 Bft) - - 0,0 km/h (0 Bft)
Max-Datum _ 01.10.12 01.10.12 07.10.12 01.10.12 05.10.12 07.10.12 01.10.12 07.10.12 04.10.12 05.10.12 01.10.12 01.10.12 05.10.12
_ Max-Zeit 16:44 16:38 12:50 10:52 11:42 09:40 08:50 14:26 07:10 12:20 08:42 06:04 12:40
Maximum _ 24,2 C 20,7 C 5,0 UV-I 9,5 C 68 % 100 % 100 % 1023,9 hPa 6,2 l/m 18,9 km/h
S (3 Bft)
0,03 h 0,03 h 60,2 km/h
S (7 Bft)
Durchschnitt _ 19,4 C 12,5 C 0,3 UV-I 0,9 C 58 % 89 % 16 % 1012,4 hPa #59,6 l/m 3,0 km/h (1 Bft) #21:36 h #21:55 h 4,7 km/h (1 Bft)
© 2012 W. Hausmann